Accueil
METAR-TAF:

METAR-TAF

Aéroports :

Arnhem, Pays-Bas

latitude: 52-04N, longitude: 005-53E, altitude: 48 m

Observation

Le bulletin a été fait il y a 11 minutes, à 05:55 UTC
Vent 6 kt de est, variant entre nord et sud/sud-est
Température 22°C
Humidité 73%
Pression 1015 hPa
Visibilité 10 km ou plus
Ciel couvert à une hauteur de 36000 ft

METAR: EHDL 110555Z AUTO 08006KT 360V160 9999 OVC360 22/17 Q1015 BLU

Heure: 08:06 (06:06 UTC)


TAF: absent

Observations et prévisions météorologiques de plus de 4000 aéroports (messages METAR et TAF).

Les stations disponibles sont représentées par des disques jaunes et rouges sur la carte.

Passer la souris dessus pour voir le nom de la station.

Cliquer dessus pour voir les observations et prévisions météorologiques.

Pour changer de carte: cliquez sur les boutons verts avec une croix noire pour zoomer, sur le bouton vert avec un tiret pour effectuer un zoom arrière, ou sur les flèches vertes pour les cartes adjacentes.


METAR-TAF: